Data for 12/27/2005

Time Sea-Level Adjusted Pressure Absolute Pressure Temperature Relative Humidity Dew Point   
(mb) (inHg) (mb) (inHg) (C) (F) (%) (C) (F)
00:05 1013 29.91 842 24.86 2.8 37.1 86 0.7 33.2
00:10 1013 29.91 842 24.86 2.9 37.3 87 0.9 33.7
00:15 1013 29.91 842 24.86 3.3 37.9 86 1.2 34.1
00:20 1013 29.91 842 24.86 3.2 37.7 87 1.2 34.2
00:25 1013 29.91 842 24.86 3.2 37.7 87 1.2 34.2
00:30 1013 29.91 842 24.86 3.2 37.7 87 1.2 34.1
00:35 1013 29.91 842 24.86 3.1 37.5 88 1.2 34.2
00:40 1013 29.91 843 24.89 3 37.5 88 1.3 34.3
00:45 1014 29.94 843 24.89 3 37.4 89 1.3 34.3
00:50 1014 29.94 843 24.89 2.9 37.3 89 1.3 34.4
00:55 1014 29.94 843 24.89 2.9 37.3 89 1.3 34.3
01:00 1014 29.94 843 24.89 2.9 37.2 89 1.2 34.1
01:05 1014 29.94 843 24.89 2.6 36.7 90 1.1 34
01:10 1014 29.94 843 24.89 2.4 36.4 90 1 33.8
01:15 1014 29.94 843 24.89 2.4 36.3 91 1 33.8
01:20 1014 29.94 843 24.89 2.2 35.9 92 1 33.7
01:25 1014 29.94 843 24.89 2 35.6 93 0.9 33.7
01:30 1014 29.94 843 24.89 2.2 36 89 0.6 33
01:35 1014 29.94 843 24.89 2.5 36.5 88 0.8 33.4
01:40 1014 29.94 843 24.89 2.6 36.6 88 0.7 33.3
01:45 1014 29.94 843 24.89 2.6 36.8 86 0.6 33
01:50 1014 29.94 843 24.89 2.8 37 85 0.5 32.9
01:55 1014 29.94 843 24.89 2.8 37.1 83 0.2 32.4
02:00 1014 29.94 843 24.89 3.1 37.6 82 0.3 32.6
02:05 1014 29.94 843 24.89 3.2 37.7 84 0.7 33.3
02:10 1014 29.94 843 24.89 3 37.3 85 0.7 33.2
02:15 1014 29.94 843 24.89 2.9 37.3 84 0.5 32.9
02:20 1014 29.94 843 24.89 3 37.3 83 0.3 32.6
02:25 1014 29.94 844 24.92 3.1 37.6 79 -0.1 31.8
02:30 1014 29.94 844 24.92 3.2 37.8 80 0.1 32.1
02:35 1014 29.94 844 24.92 3 37.3 81 0.1 32.1
02:40 1015 29.97 844 24.92 3 37.4 81 -0 32
02:45 1015 29.97 844 24.92 3.3 37.9 79 -0.1 31.9
02:50 1015 29.97 844 24.92 3.3 37.9 79 0 32.1
02:55 1015 29.97 844 24.92 3.2 37.8 80 0.1 32.2
03:00 1015 29.97 844 24.92 3.2 37.7 80 -0 32
03:05 1015 29.97 844 24.92 3 37.5 81 0.1 32.1
03:10 1015 29.97 844 24.92 2.8 37.1 81 -0.1 31.9
03:15 1015 29.97 844 24.92 3.1 37.7 78 -0.3 31.5
03:20 1015 29.97 844 24.92 3.3 38 77 -0.3 31.5
03:25 1015 29.97 844 24.92 3.4 38.1 77 -0.3 31.5
03:30 1015 29.97 844 24.92 3.4 38.2 77 -0.2 31.6
03:35 1015 29.97 844 24.92 3.5 38.3 78 -0 32
03:40 1015 29.97 844 24.92 3.2 37.8 79 -0 32
03:45 1015 29.97 844 24.92 3.2 37.7 79 -0 31.9
03:50 1015 29.97 844 24.92 3 37.5 80 -0 32
03:55 1015 29.97 845 24.95 3 37.4 81 0.1 32.1
04:00 1015 29.97 845 24.95 3.1 37.5 81 0.1 32.1
04:05 1015 29.97 845 24.95 2.9 37.2 82 0.1 32.1
04:10 1016 30 845 24.95 2.8 37.1 82 0.1 32.1
04:15 1016 30 845 24.95 2.9 37.2 82 0.1 32.2
04:20 1015 29.97 845 24.95 3 37.4 81 0 32.1
04:25 1015 29.97 845 24.95 3 37.5 80 -0 32
04:30 1015 29.97 845 24.95 3.1 37.6 81 0.1 32.3
04:35 1016 30 845 24.95 3 37.4 81 0.1 32.1
04:40 1016 30 845 24.95 3.1 37.6 81 0.1 32.1
04:45 1016 30 845 24.95 3.1 37.6 81 0.1 32.2
04:50 1015 29.97 845 24.95 2.9 37.2 82 0.1 32.2
04:55 1015 29.97 845 24.95 2.7 36.8 83 0.2 32.3
05:00 1015 29.97 845 24.95 2.5 36.5 85 0.2 32.4
05:05 1015 29.97 845 24.95 2.5 36.6 84 0.1 32.2
05:10 1015 29.97 845 24.95 2.6 36.7 84 0.2 32.3
05:15 1016 30 845 24.95 2.8 37.1 82 0.1 32.2
05:20 1016 30 845 24.95 3 37.4 81 0 32.1
05:25 1016 30 845 24.95 3.2 37.7 80 0.1 32.2
05:30 1016 30 845 24.95 3.2 37.8 81 0.2 32.4
05:35 1016 30 845 24.95 3 37.5 81 0.2 32.3
05:40 1016 30 845 24.95 2.9 37.2 82 0.1 32.2
05:45 1016 30 845 24.95 2.8 37.1 82 0 32
05:50 1016 30 845 24.95 2.8 37 82 -0 32
05:55 1016 30 846 24.98 2.8 37 82 0.1 32.1
06:00 1017 30.03 846 24.98 2.7 36.9 82 0 32
06:05 1017 30.03 846 24.98 2.7 36.8 83 0 32.1
06:10 1017 30.03 846 24.98 2.6 36.6 84 0.1 32.1
06:15 1017 30.03 846 24.98 2.5 36.4 84 0 32.1
06:20 1017 30.03 846 24.98 2.4 36.2 85 0.1 32.1
06:25 1017 30.03 846 24.98 2.4 36.2 85 0.1 32.2
06:30 1017 30.03 847 25.01 2.3 36.2 85 0.1 32.2
06:35 1017 30.03 847 25.01 2.3 36.2 86 0.2 32.4
06:40 1018 30.06 847 25.01 2.2 36 87 0.3 32.5
06:45 1018 30.06 847 25.01 2.1 35.8 87 0.2 32.3
06:50 1017 30.03 847 25.01 2.2 35.9 87 0.1 32.3
06:55 1017 30.03 847 25.01 2.3 36.1 86 0.1 32.2
07:00 1017 30.03 846 24.98 2.1 35.7 87 0.2 32.3
07:05 1017 30.03 846 24.98 1.9 35.3 88 0 32.1
07:10 1017 30.03 846 24.98 1.9 35.4 88 0.1 32.2
07:15 1017 30.03 846 24.98 2 35.5 86 -0.1 31.9
07:20 1017 30.03 846 24.98 2.1 35.7 85 -0.2 31.6
07:25 1016 30 846 24.98 2.2 35.9 84 -0.2 31.6
07:30 1016 30 845 24.95 2.1 35.8 86 0.1 32.1
07:35 1016 30 845 24.95 1.6 34.9 89 -0.1 31.9
07:40 1016 30 845 24.95 1.4 34.5 89 -0.2 31.7
07:45 1015 29.97 844 24.92 1.2 34.2 90 -0.2 31.7
07:50 1015 29.97 844 24.92 1.3 34.3 90 -0.3 31.5
07:55 1014 29.94 844 24.92 1.5 34.6 87 -0.5 31.1
08:00 1015 29.97 844 24.92 1.6 34.9 85 -0.6 30.9
08:05 1015 29.97 844 24.92 1.7 35 84 -0.7 30.7
08:10 1015 29.97 844 24.92 1.8 35.2 81 -1.2 29.8
08:15 1015 29.97 844 24.92 1.9 35.4 80 -1.2 29.8
08:20 1015 29.97 844 24.92 2 35.7 79 -1.2 29.8
08:25 1015 29.97 845 24.95 2.1 35.8 77 -1.5 29.4
08:30 1016 30 845 24.95 2.3 36.1 73 -2 28.3
08:35 1016 30 845 24.95 2.7 36.9 72 -1.9 28.6
08:40 1016 30 845 24.95 3.4 38 68 -2 28.4
08:45 1016 30 846 24.98 3.6 38.4 68 -1.8 28.7
08:50 1017 30.03 846 24.98 3.7 38.7 67 -1.8 28.7
08:55 1017 30.03 846 24.98 3.9 39 65 -2.2 28.1
09:00 1017 30.03 846 24.98 4 39.2 64 -2.2 28
09:05 1017 30.03 846 24.98 4.1 39.4 63 -2.4 27.8
09:10 1017 30.03 846 24.98 4 39.1 64 -2.2 28.1
09:15 1017 30.03 846 24.98 3.8 38.9 65 -2.2 28.1
09:20 1017 30.03 846 24.98 3.9 39 64 -2.3 27.9
09:25 1017 30.03 846 24.98 4.2 39.6 64 -1.9 28.6
09:30 1017 30.03 846 24.98 4.2 39.5 66 -1.6 29.2
09:35 1017 30.03 846 24.98 3.6 38.4 68 -1.7 28.9
09:40 1017 30.03 846 24.98 3.2 37.8 72 -1.3 29.7
09:45 1017 30.03 846 24.98 3 37.4 71 -1.8 28.8
09:50 1017 30.03 846 24.98 3.4 38.1 68 -1.9 28.5
09:55 1017 30.03 846 24.98 3.3 38 73 -1 30.2
10:00 1017 30.03 846 24.98 3.1 37.5 73 -1.4 29.6
10:05 1017 30.03 846 24.98 3.5 38.4 67 -2 28.3
10:10 1016 30 846 24.98 4.1 39.4 64 -2.1 28.3
10:15 1016 30 845 24.95 4.3 39.8 63 -2.1 28.1
10:20 1016 30 846 24.98 4.4 39.9 62 -2.2 28.1
10:25 1016 30 846 24.98 4.3 39.7 63 -2.1 28.2
10:30 1016 30 846 24.98 4.2 39.5 62 -2.4 27.6
10:35 1016 30 845 24.95 4.2 39.6 60 -2.8 27
10:40 1016 30 845 24.95 4.1 39.3 61 -2.7 27.1
10:45 1016 30 845 24.95 3.9 39.1 62 -2.7 27.2
10:50 1016 30 845 24.95 4.3 39.7 59 -3.1 26.4
10:55 1016 30 845 24.95 4.6 40.3 56 -3.4 26
11:00 1016 30 846 24.98 4.8 40.6 56 -3.2 26.2
11:05 1016 30 845 24.95 4.6 40.3 58 -3 26.6
11:10 1016 30 845 24.95 4.6 40.3 56 -3.4 25.9
11:15 1016 30 845 24.95 4.7 40.5 56 -3.2 26.2
11:20 1016 30 845 24.95 4.7 40.4 55 -3.6 25.4
11:25 1016 30 845 24.95 4.7 40.4 55 -3.5 25.7
11:30 1016 30 845 24.95 4.6 40.3 55 -3.6 25.5
11:35 1016 30 845 24.95 4.6 40.3 54 -3.9 25.1
11:40 1016 30 845 24.95 4.6 40.3 55 -3.7 25.3
11:45 1016 30 845 24.95 4.7 40.5 55 -3.7 25.4
11:50 1016 30 845 24.95 4.3 39.8 56 -3.7 25.4
11:55 1016 30 845 24.95 4.5 40.1 53 -4.3 24.2
12:00 1016 30 845 24.95 4.3 39.8 53 -4.3 24.3
12:05 1016 30 845 24.95 4.1 39.3 55 -4.2 24.4
12:10 1016 30 845 24.95 3.8 38.9 53 -4.8 23.4
12:15 1015 29.97 845 24.95 4.3 39.7 51 -5 23
12:20 1015 29.97 844 24.92 4.4 39.9 51 -4.9 23.2
12:25 1015 29.97 844 24.92 5.1 41.1 50 -4.5 23.9
12:30 1015 29.97 844 24.92 5.7 42.3 49 -4.2 24.5
12:35 1015 29.97 844 24.92 5.9 42.5 46 -4.8 23.4
12:40 1015 29.97 844 24.92 5.8 42.4 48 -4.4 24.1
12:45 1015 29.97 844 24.92 6.3 43.4 45 -4.6 23.7
12:50 1015 29.97 844 24.92 6.2 43.2 47 -4.2 24.4
12:55 1015 29.97 844 24.92 6.1 43 48 -4 24.8
13:00 1015 29.97 844 24.92 6.2 43.2 46 -4.5 23.9
13:05 1015 29.97 844 24.92 5.5 42 47 -4.7 23.5
13:10 1015 29.97 844 24.92 5.4 41.8 48 -4.6 23.7
13:15 1014 29.94 844 24.92 5.2 41.3 47 -5.3 22.4
13:20 1014 29.94 844 24.92 5.2 41.3 48 -5 23
13:25 1014 29.94 844 24.92 5.5 41.9 48 -4.7 23.5
13:30 1014 29.94 844 24.92 5.8 42.4 46 -4.9 23.2
13:35 1014 29.94 844 24.92 5.8 42.5 47 -4.5 23.9
13:40 1014 29.94 843 24.89 5.9 42.5 47 -4.5 23.9
13:45 1014 29.94 843 24.89 5.9 42.5 49 -3.9 24.9
13:50 1014 29.94 843 24.89 5.1 41.1 56 -2.9 26.7
13:55 1014 29.94 843 24.89 3.7 38.7 62 -2.8 26.9
14:00 1014 29.94 844 24.92 3.4 38.1 63 -3 26.6
14:05 1014 29.94 844 24.92 3.4 38.1 59 -3.8 25.1
14:10 1014 29.94 844 24.92 3.6 38.4 60 -3.5 25.7
14:15 1014 29.94 843 24.89 3.8 38.9 54 -4.6 23.6
14:20 1014 29.94 843 24.89 4.1 39.4 53 -4.5 23.8
14:25 1014 29.94 843 24.89 4.4 40 51 -4.9 23.2
14:30 1014 29.94 843 24.89 5.1 41.3 49 -4.6 23.8
14:35 1014 29.94 843 24.89 5.4 41.7 47 -4.9 23.1
14:40 1014 29.94 843 24.89 5.4 41.7 45 -5.7 21.8
14:45 1014 29.94 843 24.89 5.5 41.9 45 -5.4 22.2
14:50 1014 29.94 843 24.89 5.1 41.2 50 -4.5 23.8
14:55 1014 29.94 843 24.89 5.2 41.4 48 -5 23
15:00 1014 29.94 843 24.89 5.5 41.8 49 -4.4 24
15:05 1014 29.94 843 24.89 5.4 41.7 51 -4 24.7
15:10 1014 29.94 843 24.89 5.4 41.6 51 -4 24.8
15:15 1014 29.94 843 24.89 5.5 41.8 51 -3.8 25.2
15:20 1014 29.94 843 24.89 5.5 41.8 50 -4 24.8
15:25 1014 29.94 843 24.89 5.3 41.5 50 -4.4 24.2
15:30 1014 29.94 843 24.89 5.1 41.2 50 -4.4 24
15:35 1014 29.94 843 24.89 5.1 41.2 50 -4.5 24
15:40 1014 29.94 843 24.89 4.8 40.7 51 -4.5 23.9
15:45 1014 29.94 843 24.89 4.8 40.6 53 -3.9 25
15:50 1014 29.94 843 24.89 4.8 40.6 54 -3.8 25.1
15:55 1014 29.94 843 24.89 4.7 40.5 52 -4.4 24
16:00 1014 29.94 843 24.89 4.8 40.7 52 -4.3 24.3
16:05 1014 29.94 843 24.89 4.9 40.7 51 -4.5 23.9
16:10 1014 29.94 843 24.89 5 40.9 49 -4.9 23.2
16:15 1014 29.94 843 24.89 5.1 41.1 49 -4.8 23.3
16:20 1014 29.94 843 24.89 4.9 40.8 50 -4.6 23.8
16:25 1014 29.94 843 24.89 4.9 40.8 50 -4.5 23.8
16:30 1014 29.94 843 24.89 5 40.9 50 -4.5 23.9
16:35 1014 29.94 843 24.89 5 40.9 51 -4.4 24
16:40 1014 29.94 843 24.89 5 40.9 49 -4.8 23.4
16:45 1014 29.94 843 24.89 5.2 41.3 48 -4.9 23.2
16:50 1014 29.94 843 24.89 5.4 41.7 47 -5 22.9
16:55 1014 29.94 843 24.89 5.4 41.7 48 -4.8 23.3
17:00 1014 29.94 843 24.89 5.3 41.5 50 -4.4 24
17:05 1014 29.94 843 24.89 5.4 41.7 49 -4.5 23.9
17:10 1014 29.94 843 24.89 5.4 41.8 50 -4.3 24.3
17:15 1014 29.94 843 24.89 5.4 41.7 48 -4.7 23.5
17:20 1014 29.94 843 24.89 5.5 41.9 49 -4.4 24.2
17:25 1014 29.94 843 24.89 5.4 41.8 49 -4.4 24.1
17:30 1014 29.94 844 24.92 5.4 41.7 50 -4.3 24.3
17:35 1014 29.94 844 24.92 5.4 41.6 50 -4.3 24.2
17:40 1015 29.97 844 24.92 5.4 41.7 50 -4.3 24.2
17:45 1015 29.97 844 24.92 5.5 41.9 50 -4.2 24.5
17:50 1015 29.97 844 24.92 5.4 41.8 51 -3.8 25.1
17:55 1014 29.94 844 24.92 5.3 41.5 52 -3.7 25.4
18:00 1015 29.97 844 24.92 5.1 41.2 53 -3.6 25.5
18:05 1015 29.97 844 24.92 5 40.9 54 -3.5 25.7
18:10 1015 29.97 844 24.92 4.9 40.7 55 -3.4 26
18:15 1015 29.97 844 24.92 4.9 40.8 56 -3.3 26.1
18:20 1015 29.97 844 24.92 4.9 40.8 55 -3.4 26
18:25 1015 29.97 844 24.92 4.8 40.7 56 -3.2 26.2
18:30 1015 29.97 844 24.92 4.8 40.6 56 -3.2 26.3
18:35 1015 29.97 844 24.92 4.8 40.6 55 -3.5 25.7
18:40 1015 29.97 844 24.92 4.9 40.9 55 -3.4 25.8
18:45 1015 29.97 844 24.92 4.9 40.9 55 -3.3 26.1
18:50 1015 29.97 844 24.92 4.8 40.7 57 -3 26.6
18:55 1015 29.97 844 24.92 4.6 40.3 58 -3 26.5
19:00 1015 29.97 844 24.92 4.6 40.2 56 -3.4 25.9
19:05 1015 29.97 844 24.92 4.6 40.3 56 -3.3 26
19:10 1015 29.97 844 24.92 4.6 40.2 58 -3 26.5
19:15 1015 29.97 844 24.92 4.4 40 59 -2.9 26.7
19:20 1015 29.97 844 24.92 4.4 39.9 58 -3 26.5
19:25 1015 29.97 844 24.92 4.4 40 59 -3 26.7
19:30 1015 29.97 844 24.92 4.5 40 58 -3 26.6
19:35 1015 29.97 844 24.92 4.6 40.2 56 -3.4 25.9
19:40 1015 29.97 844 24.92 4.7 40.4 56 -3.4 25.9
19:45 1015 29.97 844 24.92 4.7 40.4 56 -3.3 26.1
19:50 1015 29.97 844 24.92 4.6 40.3 56 -3.4 25.9
19:55 1015 29.97 844 24.92 4.6 40.3 56 -3.3 26
20:00 1014 29.94 844 24.92 4.6 40.4 57 -3.2 26.2
20:05 1015 29.97 844 24.92 4.6 40.3 57 -3.3 26.1
20:10 1015 29.97 844 24.92 4.5 40 58 -3 26.6
20:15 1015 29.97 844 24.92 4.4 39.8 58 -3.1 26.4
20:20 1014 29.94 844 24.92 4.3 39.8 58 -3.1 26.3
20:25 1014 29.94 844 24.92 4.4 39.9 56 -3.6 25.6
20:30 1014 29.94 843 24.89 4.7 40.4 55 -3.5 25.7
20:35 1014 29.94 844 24.92 4.6 40.2 56 -3.4 25.9
20:40 1014 29.94 844 24.92 4.5 40.2 56 -3.4 25.8
20:45 1014 29.94 844 24.92 4.5 40.1 56 -3.4 25.8
20:50 1014 29.94 844 24.92 4.5 40.1 57 -3.2 26.2
20:55 1014 29.94 844 24.92 4.3 39.7 59 -2.9 26.7
21:00 1014 29.94 843 24.89 3.9 39.1 61 -3 26.6
21:05 1014 29.94 843 24.89 3.9 39 61 -3 26.6
21:10 1014 29.94 843 24.89 3.9 39 60 -3.2 26.3
21:15 1014 29.94 843 24.89 3.9 39.1 60 -3.2 26.2
21:20 1014 29.94 843 24.89 4 39.2 58 -3.5 25.8
21:25 1014 29.94 843 24.89 4.2 39.5 57 -3.6 25.6
21:30 1014 29.94 843 24.89 4.3 39.7 56 -3.7 25.4
21:35 1014 29.94 843 24.89 4.2 39.5 58 -3.5 25.8
21:40 1014 29.94 843 24.89 4.1 39.4 57 -3.7 25.4
21:45 1014 29.94 843 24.89 4.2 39.6 57 -3.6 25.6
21:50 1014 29.94 843 24.89 4.3 39.7 56 -3.7 25.4
21:55 1014 29.94 843 24.89 4.3 39.7 56 -3.6 25.5
22:00 1014 29.94 843 24.89 4.2 39.6 58 -3.3 26
22:05 1014 29.94 843 24.89 4.1 39.3 59 -3.3 26.1
22:10 1014 29.94 843 24.89 3.8 38.9 61 -3 26.5
22:15 1014 29.94 843 24.89 3.6 38.5 62 -2.9 26.7
22:20 1014 29.94 843 24.89 3.5 38.3 62 -3.1 26.4
22:25 1014 29.94 843 24.89 3.4 38.1 62 -3.2 26.2
22:30 1014 29.94 843 24.89 3.5 38.3 61 -3.3 26.1
22:35 1014 29.94 843 24.89 3.6 38.5 60 -3.5 25.7
22:40 1014 29.94 843 24.89 3.9 39 59 -3.5 25.7
22:45 1014 29.94 844 24.92 4 39.2 58 -3.5 25.6
22:50 1014 29.94 844 24.92 4.2 39.5 58 -3.4 25.9
22:55 1015 29.97 844 24.92 4.1 39.4 58 -3.3 26
23:00 1015 29.97 844 24.92 4.1 39.3 59 -3.3 26.1
23:05 1015 29.97 844 24.92 4.1 39.4 58 -3.3 26
23:10 1014 29.94 844 24.92 4.1 39.4 58 -3.4 25.8
23:15 1014 29.94 844 24.92 4.1 39.4 58 -3.4 25.9
23:20 1014 29.94 844 24.92 4.1 39.3 57 -3.6 25.5
23:25 1014 29.94 844 24.92 4 39.2 58 -3.5 25.8
23:30 1014 29.94 843 24.89 3.9 39.1 58 -3.5 25.7
23:35 1014 29.94 843 24.89 3.9 39 59 -3.4 26
23:40 1014 29.94 843 24.89 3.6 38.5 61 -3.2 26.2
23:45 1014 29.94 844 24.92 3.4 38.1 61 -3.3 26.1
23:50 1014 29.94 844 24.92 3.4 38.1 62 -3.2 26.2
23:55 1015 29.97 844 24.92 3.7 38.7 58 -3.8 25.1
24:00 1015 29.97 844 24.92 4.3 39.7 58 -3.2 26.2